Terminal Aerodrome Forecast
Issued by NWS

Current Version | Previous Version | Text Only | Print | Product List | Glossary Off
Versions: 1 2 3 4 5 6 7 8 9 10 11 12 13 14 15 16 17 18

341
FTUS41 KPBZ 081938 AAA
TAFMGW
TAF AMD
KMGW 081938Z 0820/0918 22005KT P6SM -RA SCT006 OVC015
      TEMPO 0820/0823 5SM -RA BKN006
     FM082300 25005KT P6SM OVC015
     FM090900 29005KT 2SM -SN OVC008=

USA.gov is the U.S. government's official web portal to all federal, state and local government web resources and services.